sensor_id;sensor_type;location;lat;lon;timestamp;P1;durP1;ratioP1;P2;durP2;ratioP2
19285;SDS011;9776;50.798;6.430;2023-07-30T00:00:23;2.20;;;1.30;;
19285;SDS011;9776;50.798;6.430;2023-07-30T00:02:50;3.45;;;1.45;;
19285;SDS011;9776;50.798;6.430;2023-07-30T00:05:17;1.83;;;1.25;;
19285;SDS011;9776;50.798;6.430;2023-07-30T00:07:45;1.90;;;1.15;;
19285;SDS011;9776;50.798;6.430;2023-07-30T00:10:11;1.90;;;1.20;;
19285;SDS011;9776;50.798;6.430;2023-07-30T00:12:38;2.17;;;1.20;;
19285;SDS011;9776;50.798;6.430;2023-07-30T00:15:06;2.03;;;1.20;;
19285;SDS011;9776;50.798;6.430;2023-07-30T00:17:33;4.07;;;1.42;;
19285;SDS011;9776;50.798;6.430;2023-07-30T00:20:00;3.50;;;1.17;;
19285;SDS011;9776;50.798;6.430;2023-07-30T00:22:27;2.85;;;1.30;;
19285;SDS011;9776;50.798;6.430;2023-07-30T00:24:55;2.97;;;1.20;;
19285;SDS011;9776;50.798;6.430;2023-07-30T00:27:22;2.47;;;1.50;;
19285;SDS011;9776;50.798;6.430;2023-07-30T00:29:49;2.10;;;1.30;;
19285;SDS011;9776;50.798;6.430;2023-07-30T00:32:15;2.15;;;1.20;;
19285;SDS011;9776;50.798;6.430;2023-07-30T00:34:42;2.13;;;1.55;;
19285;SDS011;9776;50.798;6.430;2023-07-30T00:37:09;2.70;;;1.50;;
19285;SDS011;9776;50.798;6.430;2023-07-30T00:39:36;2.13;;;1.30;;
19285;SDS011;9776;50.798;6.430;2023-07-30T00:42:04;2.88;;;1.42;;
19285;SDS011;9776;50.798;6.430;2023-07-30T00:44:31;1.67;;;1.15;;
19285;SDS011;9776;50.798;6.430;2023-07-30T00:46:58;3.58;;;1.50;;
19285;SDS011;9776;50.798;6.430;2023-07-30T00:49:25;2.45;;;1.40;;
19285;SDS011;9776;50.798;6.430;2023-07-30T00:51:52;4.70;;;1.48;;
19285;SDS011;9776;50.798;6.430;2023-07-30T00:54:21;3.05;;;1.58;;
19285;SDS011;9776;50.798;6.430;2023-07-30T00:56:49;3.08;;;1.30;;
19285;SDS011;9776;50.798;6.430;2023-07-30T00:59:18;3.03;;;1.67;;
19285;SDS011;9776;50.798;6.430;2023-07-30T01:01:46;3.42;;;1.40;;
19285;SDS011;9776;50.798;6.430;2023-07-30T01:04:13;1.90;;;1.40;;
19285;SDS011;9776;50.798;6.430;2023-07-30T01:06:41;2.67;;;1.42;;
19285;SDS011;9776;50.798;6.430;2023-07-30T01:09:08;3.88;;;1.60;;
19285;SDS011;9776;50.798;6.430;2023-07-30T01:11:35;2.75;;;1.30;;
19285;SDS011;9776;50.798;6.430;2023-07-30T01:14:03;5.30;;;1.50;;
19285;SDS011;9776;50.798;6.430;2023-07-30T01:16:32;4.03;;;1.30;;
19285;SDS011;9776;50.798;6.430;2023-07-30T01:18:59;5.00;;;1.80;;
19285;SDS011;9776;50.798;6.430;2023-07-30T01:21:31;3.10;;;1.58;;
19285;SDS011;9776;50.798;6.430;2023-07-30T01:23:58;2.17;;;1.23;;
19285;SDS011;9776;50.798;6.430;2023-07-30T01:26:27;2.25;;;1.25;;
19285;SDS011;9776;50.798;6.430;2023-07-30T01:29:08;3.13;;;1.35;;
19285;SDS011;9776;50.798;6.430;2023-07-30T01:31:37;3.95;;;1.50;;
19285;SDS011;9776;50.798;6.430;2023-07-30T01:34:06;3.83;;;1.35;;
19285;SDS011;9776;50.798;6.430;2023-07-30T01:36:35;4.00;;;1.30;;
19285;SDS011;9776;50.798;6.430;2023-07-30T01:39:03;3.80;;;1.42;;
19285;SDS011;9776;50.798;6.430;2023-07-30T01:41:31;2.47;;;1.33;;
19285;SDS011;9776;50.798;6.430;2023-07-30T01:43:58;2.95;;;1.55;;
19285;SDS011;9776;50.798;6.430;2023-07-30T01:46:24;6.00;;;1.45;;
19285;SDS011;9776;50.798;6.430;2023-07-30T01:48:51;5.70;;;1.60;;
19285;SDS011;9776;50.798;6.430;2023-07-30T01:51:18;3.40;;;1.40;;
19285;SDS011;9776;50.798;6.430;2023-07-30T01:53:46;7.97;;;1.67;;
19285;SDS011;9776;50.798;6.430;2023-07-30T01:56:13;6.03;;;1.50;;
19285;SDS011;9776;50.798;6.430;2023-07-30T01:58:40;4.78;;;1.50;;
19285;SDS011;9776;50.798;6.430;2023-07-30T02:01:06;6.63;;;1.60;;
19285;SDS011;9776;50.798;6.430;2023-07-30T02:03:33;5.60;;;1.80;;
19285;SDS011;9776;50.798;6.430;2023-07-30T02:06:00;5.05;;;1.50;;
19285;SDS011;9776;50.798;6.430;2023-07-30T02:08:26;3.35;;;1.50;;
19285;SDS011;9776;50.798;6.430;2023-07-30T02:10:57;3.58;;;1.40;;
19285;SDS011;9776;50.798;6.430;2023-07-30T02:13:24;3.55;;;1.55;;
19285;SDS011;9776;50.798;6.430;2023-07-30T02:15:51;3.70;;;1.40;;
19285;SDS011;9776;50.798;6.430;2023-07-30T02:18:18;3.65;;;1.52;;
19285;SDS011;9776;50.798;6.430;2023-07-30T02:20:45;1.92;;;1.27;;
19285;SDS011;9776;50.798;6.430;2023-07-30T02:23:13;2.65;;;1.40;;
19285;SDS011;9776;50.798;6.430;2023-07-30T02:25:41;2.63;;;1.58;;
19285;SDS011;9776;50.798;6.430;2023-07-30T02:28:09;4.35;;;1.52;;
19285;SDS011;9776;50.798;6.430;2023-07-30T02:30:36;4.40;;;1.27;;
19285;SDS011;9776;50.798;6.430;2023-07-30T02:33:03;2.90;;;1.60;;
19285;SDS011;9776;50.798;6.430;2023-07-30T02:35:29;4.22;;;1.60;;
19285;SDS011;9776;50.798;6.430;2023-07-30T02:37:56;4.10;;;1.70;;
19285;SDS011;9776;50.798;6.430;2023-07-30T02:40:23;5.22;;;1.80;;
19285;SDS011;9776;50.798;6.430;2023-07-30T02:42:49;6.60;;;1.50;;
19285;SDS011;9776;50.798;6.430;2023-07-30T02:45:17;3.22;;;1.33;;
19285;SDS011;9776;50.798;6.430;2023-07-30T02:47:45;3.15;;;1.60;;
19285;SDS011;9776;50.798;6.430;2023-07-30T02:50:12;2.45;;;1.30;;
19285;SDS011;9776;50.798;6.430;2023-07-30T02:52:39;3.00;;;1.33;;
19285;SDS011;9776;50.798;6.430;2023-07-30T02:55:06;2.38;;;1.40;;
19285;SDS011;9776;50.798;6.430;2023-07-30T02:57:33;2.78;;;1.80;;
19285;SDS011;9776;50.798;6.430;2023-07-30T03:00:00;5.03;;;1.73;;
19285;SDS011;9776;50.798;6.430;2023-07-30T03:02:31;3.10;;;1.55;;
19285;SDS011;9776;50.798;6.430;2023-07-30T03:05:03;3.10;;;1.25;;
19285;SDS011;9776;50.798;6.430;2023-07-30T03:07:30;5.03;;;1.35;;
19285;SDS011;9776;50.798;6.430;2023-07-30T03:09:57;3.75;;;1.45;;
19285;SDS011;9776;50.798;6.430;2023-07-30T03:12:24;3.88;;;1.50;;
19285;SDS011;9776;50.798;6.430;2023-07-30T03:14:50;3.92;;;1.63;;
19285;SDS011;9776;50.798;6.430;2023-07-30T03:17:17;3.88;;;1.48;;
19285;SDS011;9776;50.798;6.430;2023-07-30T03:19:45;2.90;;;1.30;;
19285;SDS011;9776;50.798;6.430;2023-07-30T03:22:12;3.75;;;1.60;;
19285;SDS011;9776;50.798;6.430;2023-07-30T03:24:39;1.92;;;0.93;;
19285;SDS011;9776;50.798;6.430;2023-07-30T03:27:06;5.57;;;1.70;;
19285;SDS011;9776;50.798;6.430;2023-07-30T03:29:33;3.80;;;1.02;;
19285;SDS011;9776;50.798;6.430;2023-07-30T03:31:59;3.90;;;1.38;;
19285;SDS011;9776;50.798;6.430;2023-07-30T03:34:26;2.10;;;1.10;;
19285;SDS011;9776;50.798;6.430;2023-07-30T03:36:54;3.78;;;1.35;;
19285;SDS011;9776;50.798;6.430;2023-07-30T03:39:21;4.68;;;1.25;;
19285;SDS011;9776;50.798;6.430;2023-07-30T03:41:47;2.63;;;1.00;;
19285;SDS011;9776;50.798;6.430;2023-07-30T03:44:14;3.95;;;1.45;;
19285;SDS011;9776;50.798;6.430;2023-07-30T03:46:41;4.18;;;1.20;;
19285;SDS011;9776;50.798;6.430;2023-07-30T03:49:07;3.90;;;1.30;;
19285;SDS011;9776;50.798;6.430;2023-07-30T03:51:34;2.65;;;1.20;;
19285;SDS011;9776;50.798;6.430;2023-07-30T03:54:03;4.65;;;1.35;;
19285;SDS011;9776;50.798;6.430;2023-07-30T03:56:29;3.33;;;1.02;;
19285;SDS011;9776;50.798;6.430;2023-07-30T03:58:56;4.18;;;1.25;;
19285;SDS011;9776;50.798;6.430;2023-07-30T04:01:23;3.97;;;1.30;;
19285;SDS011;9776;50.798;6.430;2023-07-30T04:03:50;3.22;;;1.20;;
19285;SDS011;9776;50.798;6.430;2023-07-30T04:06:16;2.35;;;1.02;;
19285;SDS011;9776;50.798;6.430;2023-07-30T04:08:43;4.38;;;1.38;;
19285;SDS011;9776;50.798;6.430;2023-07-30T04:11:11;5.40;;;1.30;;
19285;SDS011;9776;50.798;6.430;2023-07-30T04:13:38;2.33;;;1.20;;
19285;SDS011;9776;50.798;6.430;2023-07-30T04:16:06;4.40;;;1.23;;
19285;SDS011;9776;50.798;6.430;2023-07-30T04:18:32;5.95;;;1.63;;
19285;SDS011;9776;50.798;6.430;2023-07-30T04:20:59;4.13;;;1.30;;
19285;SDS011;9776;50.798;6.430;2023-07-30T04:23:26;3.53;;;1.60;;
19285;SDS011;9776;50.798;6.430;2023-07-30T04:25:53;2.42;;;1.20;;
19285;SDS011;9776;50.798;6.430;2023-07-30T04:28:21;4.00;;;1.10;;
19285;SDS011;9776;50.798;6.430;2023-07-30T04:30:47;4.20;;;1.30;;
19285;SDS011;9776;50.798;6.430;2023-07-30T04:33:14;5.15;;;1.20;;
19285;SDS011;9776;50.798;6.430;2023-07-30T04:35:41;4.30;;;1.40;;
19285;SDS011;9776;50.798;6.430;2023-07-30T04:38:08;3.45;;;1.20;;
19285;SDS011;9776;50.798;6.430;2023-07-30T04:40:34;7.10;;;1.15;;
19285;SDS011;9776;50.798;6.430;2023-07-30T04:43:01;4.35;;;1.20;;
19285;SDS011;9776;50.798;6.430;2023-07-30T04:45:31;3.10;;;1.33;;
19285;SDS011;9776;50.798;6.430;2023-07-30T04:47:58;4.55;;;1.30;;
19285;SDS011;9776;50.798;6.430;2023-07-30T04:50:24;4.65;;;1.30;;
19285;SDS011;9776;50.798;6.430;2023-07-30T04:52:51;4.43;;;1.35;;
19285;SDS011;9776;50.798;6.430;2023-07-30T04:55:18;3.55;;;1.50;;
19285;SDS011;9776;50.798;6.430;2023-07-30T04:57:44;4.47;;;1.55;;
19285;SDS011;9776;50.798;6.430;2023-07-30T05:00:11;5.05;;;1.23;;
19285;SDS011;9776;50.798;6.430;2023-07-30T05:02:40;5.30;;;1.40;;
19285;SDS011;9776;50.798;6.430;2023-07-30T05:05:07;4.03;;;1.23;;
19285;SDS011;9776;50.798;6.430;2023-07-30T05:07:34;4.05;;;1.17;;
19285;SDS011;9776;50.798;6.430;2023-07-30T05:10:00;3.08;;;1.45;;
19285;SDS011;9776;50.798;6.430;2023-07-30T05:12:29;5.00;;;1.70;;
19285;SDS011;9776;50.798;6.430;2023-07-30T05:14:55;4.47;;;1.33;;
19285;SDS011;9776;50.798;6.430;2023-07-30T05:17:22;8.07;;;1.38;;
19285;SDS011;9776;50.798;6.430;2023-07-30T05:19:50;3.63;;;1.20;;
19285;SDS011;9776;50.798;6.430;2023-07-30T05:22:17;4.10;;;1.35;;
19285;SDS011;9776;50.798;6.430;2023-07-30T05:24:44;3.38;;;1.30;;
19285;SDS011;9776;50.798;6.430;2023-07-30T05:27:10;4.00;;;1.45;;
19285;SDS011;9776;50.798;6.430;2023-07-30T05:29:37;3.78;;;1.20;;
19285;SDS011;9776;50.798;6.430;2023-07-30T05:32:04;5.18;;;1.42;;
19285;SDS011;9776;50.798;6.430;2023-07-30T05:34:32;4.93;;;1.20;;
19285;SDS011;9776;50.798;6.430;2023-07-30T05:37:00;3.85;;;1.42;;
19285;SDS011;9776;50.798;6.430;2023-07-30T05:39:27;4.28;;;1.30;;
19285;SDS011;9776;50.798;6.430;2023-07-30T05:41:53;3.05;;;0.90;;
19285;SDS011;9776;50.798;6.430;2023-07-30T05:44:20;3.85;;;0.80;;
19285;SDS011;9776;50.798;6.430;2023-07-30T05:46:47;3.08;;;0.90;;
19285;SDS011;9776;50.798;6.430;2023-07-30T05:49:14;2.20;;;0.90;;
19285;SDS011;9776;50.798;6.430;2023-07-30T05:51:40;3.55;;;0.90;;
19285;SDS011;9776;50.798;6.430;2023-07-30T05:54:09;2.67;;;0.90;;
19285;SDS011;9776;50.798;6.430;2023-07-30T05:56:35;2.47;;;0.90;;
19285;SDS011;9776;50.798;6.430;2023-07-30T05:59:02;3.22;;;1.00;;
19285;SDS011;9776;50.798;6.430;2023-07-30T06:01:29;4.85;;;0.90;;
19285;SDS011;9776;50.798;6.430;2023-07-30T06:03:55;3.55;;;1.00;;
19285;SDS011;9776;50.798;6.430;2023-07-30T06:06:22;5.97;;;0.90;;
19285;SDS011;9776;50.798;6.430;2023-07-30T06:08:52;3.08;;;0.50;;
19285;SDS011;9776;50.798;6.430;2023-07-30T06:11:21;2.90;;;0.82;;
19285;SDS011;9776;50.798;6.430;2023-07-30T06:13:48;2.83;;;0.90;;
19285;SDS011;9776;50.798;6.430;2023-07-30T06:16:16;2.55;;;0.88;;
19285;SDS011;9776;50.798;6.430;2023-07-30T06:18:44;1.95;;;0.70;;
19285;SDS011;9776;50.798;6.430;2023-07-30T06:21:11;2.67;;;0.70;;
19285;SDS011;9776;50.798;6.430;2023-07-30T06:23:37;2.17;;;0.70;;
19285;SDS011;9776;50.798;6.430;2023-07-30T06:26:04;1.65;;;0.70;;
19285;SDS011;9776;50.798;6.430;2023-07-30T06:28:32;2.10;;;0.80;;
19285;SDS011;9776;50.798;6.430;2023-07-30T06:30:59;1.77;;;0.80;;
19285;SDS011;9776;50.798;6.430;2023-07-30T06:33:26;3.00;;;0.80;;
19285;SDS011;9776;50.798;6.430;2023-07-30T06:35:53;2.38;;;0.70;;
19285;SDS011;9776;50.798;6.430;2023-07-30T06:38:20;2.38;;;0.75;;
19285;SDS011;9776;50.798;6.430;2023-07-30T06:40:46;3.65;;;0.85;;
19285;SDS011;9776;50.798;6.430;2023-07-30T06:43:13;5.97;;;0.95;;
19285;SDS011;9776;50.798;6.430;2023-07-30T06:45:41;5.13;;;0.90;;
19285;SDS011;9776;50.798;6.430;2023-07-30T06:48:08;3.88;;;0.90;;
19285;SDS011;9776;50.798;6.430;2023-07-30T06:50:35;3.45;;;0.98;;
19285;SDS011;9776;50.798;6.430;2023-07-30T06:53:01;5.38;;;1.10;;
19285;SDS011;9776;50.798;6.430;2023-07-30T06:55:28;5.65;;;1.25;;
19285;SDS011;9776;50.798;6.430;2023-07-30T06:57:55;3.42;;;1.02;;
19285;SDS011;9776;50.798;6.430;2023-07-30T07:00:21;4.15;;;1.10;;
19285;SDS011;9776;50.798;6.430;2023-07-30T07:02:49;3.47;;;1.10;;
19285;SDS011;9776;50.798;6.430;2023-07-30T07:05:16;4.35;;;1.20;;
19285;SDS011;9776;50.798;6.430;2023-07-30T07:07:43;2.13;;;0.90;;
19285;SDS011;9776;50.798;6.430;2023-07-30T07:10:11;4.35;;;1.20;;
19285;SDS011;9776;50.798;6.430;2023-07-30T07:12:38;3.55;;;0.85;;
19285;SDS011;9776;50.798;6.430;2023-07-30T07:15:05;3.83;;;1.10;;
19285;SDS011;9776;50.798;6.430;2023-07-30T07:17:32;5.60;;;1.20;;
19285;SDS011;9776;50.798;6.430;2023-07-30T07:20:01;4.32;;;1.20;;
19285;SDS011;9776;50.798;6.430;2023-07-30T07:22:31;4.20;;;1.25;;
19285;SDS011;9776;50.798;6.430;2023-07-30T07:24:58;4.90;;;1.05;;
19285;SDS011;9776;50.798;6.430;2023-07-30T07:27:25;7.50;;;1.20;;
19285;SDS011;9776;50.798;6.430;2023-07-30T07:29:52;8.13;;;1.30;;
19285;SDS011;9776;50.798;6.430;2023-07-30T07:32:19;4.53;;;1.27;;
19285;SDS011;9776;50.798;6.430;2023-07-30T07:34:46;5.47;;;1.30;;
19285;SDS011;9776;50.798;6.430;2023-07-30T07:37:14;7.32;;;1.55;;
19285;SDS011;9776;50.798;6.430;2023-07-30T07:39:43;4.78;;;1.38;;
19285;SDS011;9776;50.798;6.430;2023-07-30T07:42:10;7.28;;;1.50;;
19285;SDS011;9776;50.798;6.430;2023-07-30T07:44:37;6.40;;;1.10;;
19285;SDS011;9776;50.798;6.430;2023-07-30T07:47:04;3.28;;;1.35;;
19285;SDS011;9776;50.798;6.430;2023-07-30T07:49:31;7.78;;;1.52;;
19285;SDS011;9776;50.798;6.430;2023-07-30T07:51:58;6.28;;;1.40;;
19285;SDS011;9776;50.798;6.430;2023-07-30T07:54:26;5.43;;;1.45;;
19285;SDS011;9776;50.798;6.430;2023-07-30T07:56:53;5.70;;;1.40;;
19285;SDS011;9776;50.798;6.430;2023-07-30T07:59:19;6.05;;;1.40;;
19285;SDS011;9776;50.798;6.430;2023-07-30T08:01:46;7.60;;;1.70;;
19285;SDS011;9776;50.798;6.430;2023-07-30T08:04:13;3.42;;;1.20;;
19285;SDS011;9776;50.798;6.430;2023-07-30T08:06:40;4.85;;;1.38;;
19285;SDS011;9776;50.798;6.430;2023-07-30T08:09:07;5.45;;;1.50;;
19285;SDS011;9776;50.798;6.430;2023-07-30T08:11:36;4.82;;;1.05;;
19285;SDS011;9776;50.798;6.430;2023-07-30T08:14:03;7.85;;;1.30;;
19285;SDS011;9776;50.798;6.430;2023-07-30T08:16:29;7.40;;;1.50;;
19285;SDS011;9776;50.798;6.430;2023-07-30T08:18:57;2.58;;;1.15;;
19285;SDS011;9776;50.798;6.430;2023-07-30T08:21:23;4.63;;;1.20;;
19285;SDS011;9776;50.798;6.430;2023-07-30T08:23:50;5.18;;;1.30;;
19285;SDS011;9776;50.798;6.430;2023-07-30T08:26:17;4.68;;;1.10;;
19285;SDS011;9776;50.798;6.430;2023-07-30T08:28:45;4.88;;;1.27;;
19285;SDS011;9776;50.798;6.430;2023-07-30T08:31:12;6.15;;;1.00;;
19285;SDS011;9776;50.798;6.430;2023-07-30T08:33:39;3.80;;;1.05;;
19285;SDS011;9776;50.798;6.430;2023-07-30T08:36:05;5.25;;;1.20;;
19285;SDS011;9776;50.798;6.430;2023-07-30T08:38:32;3.13;;;0.95;;
19285;SDS011;9776;50.798;6.430;2023-07-30T08:40:59;3.13;;;1.05;;
19285;SDS011;9776;50.798;6.430;2023-07-30T08:43:26;3.95;;;1.10;;
19285;SDS011;9776;50.798;6.430;2023-07-30T08:45:54;3.83;;;1.15;;
19285;SDS011;9776;50.798;6.430;2023-07-30T08:48:21;5.07;;;1.35;;
19285;SDS011;9776;50.798;6.430;2023-07-30T08:50:48;4.28;;;1.20;;
19285;SDS011;9776;50.798;6.430;2023-07-30T08:53:16;7.28;;;1.23;;
19285;SDS011;9776;50.798;6.430;2023-07-30T08:55:43;5.63;;;1.45;;
19285;SDS011;9776;50.798;6.430;2023-07-30T08:58:11;9.73;;;1.35;;
19285;SDS011;9776;50.798;6.430;2023-07-30T09:00:38;7.38;;;1.30;;
19285;SDS011;9776;50.798;6.430;2023-07-30T09:03:08;6.05;;;1.17;;
19285;SDS011;9776;50.798;6.430;2023-07-30T09:05:38;5.30;;;1.13;;
19285;SDS011;9776;50.798;6.430;2023-07-30T09:08:05;5.53;;;1.20;;
19285;SDS011;9776;50.798;6.430;2023-07-30T09:10:32;4.60;;;1.10;;
19285;SDS011;9776;50.798;6.430;2023-07-30T09:13:01;6.13;;;1.27;;
19285;SDS011;9776;50.798;6.430;2023-07-30T09:15:29;5.13;;;1.00;;
19285;SDS011;9776;50.798;6.430;2023-07-30T09:17:57;5.03;;;1.20;;
19285;SDS011;9776;50.798;6.430;2023-07-30T09:20:25;6.57;;;1.30;;
19285;SDS011;9776;50.798;6.430;2023-07-30T09:22:55;3.22;;;1.10;;
19285;SDS011;9776;50.798;6.430;2023-07-30T09:25:22;7.32;;;1.45;;
19285;SDS011;9776;50.798;6.430;2023-07-30T09:27:50;5.15;;;1.02;;
19285;SDS011;9776;50.798;6.430;2023-07-30T09:30:21;6.78;;;1.10;;
19285;SDS011;9776;50.798;6.430;2023-07-30T09:32:51;3.70;;;1.02;;
19285;SDS011;9776;50.798;6.430;2023-07-30T09:35:19;3.78;;;1.10;;
19285;SDS011;9776;50.798;6.430;2023-07-30T09:37:48;3.40;;;1.10;;
19285;SDS011;9776;50.798;6.430;2023-07-30T09:40:15;5.72;;;1.45;;
19285;SDS011;9776;50.798;6.430;2023-07-30T09:42:44;5.70;;;1.15;;
19285;SDS011;9776;50.798;6.430;2023-07-30T09:45:19;4.35;;;1.00;;
19285;SDS011;9776;50.798;6.430;2023-07-30T09:47:47;5.82;;;1.60;;
19285;SDS011;9776;50.798;6.430;2023-07-30T09:50:14;5.35;;;1.25;;
19285;SDS011;9776;50.798;6.430;2023-07-30T09:52:41;7.70;;;0.95;;
19285;SDS011;9776;50.798;6.430;2023-07-30T09:55:10;4.68;;;1.10;;
19285;SDS011;9776;50.798;6.430;2023-07-30T09:57:37;4.93;;;1.08;;
19285;SDS011;9776;50.798;6.430;2023-07-30T10:00:05;6.75;;;1.30;;
19285;SDS011;9776;50.798;6.430;2023-07-30T10:02:36;2.85;;;0.73;;
19285;SDS011;9776;50.798;6.430;2023-07-30T10:05:06;4.10;;;0.95;;
19285;SDS011;9776;50.798;6.430;2023-07-30T10:07:36;2.15;;;0.70;;
19285;SDS011;9776;50.798;6.430;2023-07-30T10:10:07;3.78;;;0.80;;
19285;SDS011;9776;50.798;6.430;2023-07-30T10:12:36;3.20;;;0.70;;
19285;SDS011;9776;50.798;6.430;2023-07-30T10:15:06;2.88;;;0.80;;
19285;SDS011;9776;50.798;6.430;2023-07-30T10:17:33;1.95;;;0.60;;
19285;SDS011;9776;50.798;6.430;2023-07-30T10:22:51;3.33;;;0.60;;
19285;SDS011;9776;50.798;6.430;2023-07-30T10:25:20;3.50;;;0.60;;
19285;SDS011;9776;50.798;6.430;2023-07-30T10:27:50;1.77;;;0.60;;
19285;SDS011;9776;50.798;6.430;2023-07-30T10:30:17;3.72;;;0.60;;
19285;SDS011;9776;50.798;6.430;2023-07-30T10:32:57;2.42;;;0.57;;
19285;SDS011;9776;50.798;6.430;2023-07-30T10:35:35;2.33;;;0.50;;
19285;SDS011;9776;50.798;6.430;2023-07-30T10:38:11;4.00;;;0.70;;
19285;SDS011;9776;50.798;6.430;2023-07-30T10:40:42;2.10;;;0.70;;
19285;SDS011;9776;50.798;6.430;2023-07-30T10:43:28;2.90;;;0.60;;
19285;SDS011;9776;50.798;6.430;2023-07-30T10:45:55;2.55;;;0.47;;
19285;SDS011;9776;50.798;6.430;2023-07-30T10:48:29;1.60;;;0.40;;
19285;SDS011;9776;50.798;6.430;2023-07-30T10:50:57;3.33;;;0.57;;
19285;SDS011;9776;50.798;6.430;2023-07-30T10:53:25;2.10;;;0.40;;
19285;SDS011;9776;50.798;6.430;2023-07-30T10:55:52;1.42;;;0.43;;
19285;SDS011;9776;50.798;6.430;2023-07-30T10:58:19;3.13;;;0.73;;
19285;SDS011;9776;50.798;6.430;2023-07-30T11:00:49;2.75;;;0.57;;
19285;SDS011;9776;50.798;6.430;2023-07-30T11:03:16;5.10;;;0.60;;
19285;SDS011;9776;50.798;6.430;2023-07-30T11:05:45;3.45;;;0.65;;
19285;SDS011;9776;50.798;6.430;2023-07-30T11:08:13;3.47;;;0.50;;
19285;SDS011;9776;50.798;6.430;2023-07-30T11:10:43;2.00;;;0.60;;
19285;SDS011;9776;50.798;6.430;2023-07-30T11:13:12;2.60;;;0.60;;
19285;SDS011;9776;50.798;6.430;2023-07-30T11:15:42;1.67;;;0.60;;
19285;SDS011;9776;50.798;6.430;2023-07-30T11:18:11;2.50;;;0.60;;
19285;SDS011;9776;50.798;6.430;2023-07-30T11:20:38;6.85;;;0.60;;
19285;SDS011;9776;50.798;6.430;2023-07-30T11:23:18;2.50;;;0.70;;
19285;SDS011;9776;50.798;6.430;2023-07-30T11:25:45;3.22;;;0.50;;
19285;SDS011;9776;50.798;6.430;2023-07-30T11:28:14;2.03;;;0.55;;
19285;SDS011;9776;50.798;6.430;2023-07-30T11:30:41;3.40;;;0.73;;
19285;SDS011;9776;50.798;6.430;2023-07-30T11:33:15;3.45;;;0.70;;
19285;SDS011;9776;50.798;6.430;2023-07-30T11:35:42;2.83;;;0.80;;
19285;SDS011;9776;50.798;6.430;2023-07-30T11:38:09;2.22;;;0.43;;
19285;SDS011;9776;50.798;6.430;2023-07-30T11:40:38;2.63;;;0.60;;
19285;SDS011;9776;50.798;6.430;2023-07-30T11:43:05;2.70;;;0.70;;
19285;SDS011;9776;50.798;6.430;2023-07-30T11:45:31;3.55;;;0.80;;
19285;SDS011;9776;50.798;6.430;2023-07-30T11:48:05;2.78;;;0.70;;
19285;SDS011;9776;50.798;6.430;2023-07-30T11:50:43;3.05;;;0.90;;
19285;SDS011;9776;50.798;6.430;2023-07-30T11:53:13;3.28;;;0.57;;
19285;SDS011;9776;50.798;6.430;2023-07-30T11:55:40;1.90;;;0.57;;
19285;SDS011;9776;50.798;6.430;2023-07-30T11:58:09;3.47;;;0.80;;
19285;SDS011;9776;50.798;6.430;2023-07-30T12:00:37;1.90;;;0.57;;
19285;SDS011;9776;50.798;6.430;2023-07-30T12:03:06;4.72;;;0.73;;
19285;SDS011;9776;50.798;6.430;2023-07-30T12:05:37;3.15;;;0.60;;
19285;SDS011;9776;50.798;6.430;2023-07-30T12:08:06;2.58;;;0.70;;
19285;SDS011;9776;50.798;6.430;2023-07-30T12:10:40;3.20;;;0.60;;
19285;SDS011;9776;50.798;6.430;2023-07-30T12:13:11;4.55;;;0.98;;
19285;SDS011;9776;50.798;6.430;2023-07-30T12:15:38;2.88;;;1.00;;
19285;SDS011;9776;50.798;6.430;2023-07-30T12:18:04;3.10;;;0.75;;
19285;SDS011;9776;50.798;6.430;2023-07-30T12:20:31;2.10;;;0.60;;
19285;SDS011;9776;50.798;6.430;2023-07-30T12:22:58;5.22;;;0.85;;
19285;SDS011;9776;50.798;6.430;2023-07-30T12:25:26;2.70;;;0.75;;
19285;SDS011;9776;50.798;6.430;2023-07-30T12:27:53;4.22;;;0.82;;
19285;SDS011;9776;50.798;6.430;2023-07-30T12:30:20;2.30;;;0.70;;
19285;SDS011;9776;50.798;6.430;2023-07-30T12:32:47;2.85;;;0.80;;
19285;SDS011;9776;50.798;6.430;2023-07-30T12:35:14;3.40;;;0.60;;
19285;SDS011;9776;50.798;6.430;2023-07-30T12:37:40;2.55;;;0.80;;
19285;SDS011;9776;50.798;6.430;2023-07-30T12:40:08;2.92;;;0.73;;
19285;SDS011;9776;50.798;6.430;2023-07-30T12:42:36;4.15;;;0.73;;
19285;SDS011;9776;50.798;6.430;2023-07-30T12:45:03;2.05;;;0.60;;
19285;SDS011;9776;50.798;6.430;2023-07-30T12:47:30;1.80;;;0.70;;
19285;SDS011;9776;50.798;6.430;2023-07-30T12:50:00;1.85;;;0.60;;
19285;SDS011;9776;50.798;6.430;2023-07-30T12:52:27;3.67;;;0.93;;
19285;SDS011;9776;50.798;6.430;2023-07-30T12:54:53;1.77;;;0.70;;
19285;SDS011;9776;50.798;6.430;2023-07-30T12:57:20;3.20;;;0.80;;
19285;SDS011;9776;50.798;6.430;2023-07-30T12:59:48;3.30;;;0.70;;
19285;SDS011;9776;50.798;6.430;2023-07-30T13:02:15;1.85;;;0.60;;
19285;SDS011;9776;50.798;6.430;2023-07-30T13:04:42;2.85;;;0.50;;
19285;SDS011;9776;50.798;6.430;2023-07-30T13:07:09;2.97;;;1.30;;
19285;SDS011;9776;50.798;6.430;2023-07-30T13:09:35;2.55;;;0.95;;
19285;SDS011;9776;50.798;6.430;2023-07-30T13:12:02;2.85;;;0.80;;
19285;SDS011;9776;50.798;6.430;2023-07-30T13:14:29;2.75;;;0.85;;
19285;SDS011;9776;50.798;6.430;2023-07-30T13:16:57;2.67;;;0.73;;
19285;SDS011;9776;50.798;6.430;2023-07-30T13:19:24;3.35;;;1.00;;
19285;SDS011;9776;50.798;6.430;2023-07-30T13:21:53;3.08;;;0.70;;
19285;SDS011;9776;50.798;6.430;2023-07-30T13:24:20;1.65;;;0.60;;
19285;SDS011;9776;50.798;6.430;2023-07-30T13:26:46;3.53;;;0.88;;
19285;SDS011;9776;50.798;6.430;2023-07-30T13:29:13;4.30;;;0.77;;
19285;SDS011;9776;50.798;6.430;2023-07-30T13:31:40;1.98;;;0.60;;
19285;SDS011;9776;50.798;6.430;2023-07-30T13:34:08;3.90;;;0.80;;
19285;SDS011;9776;50.798;6.430;2023-07-30T13:36:34;4.28;;;0.80;;
19285;SDS011;9776;50.798;6.430;2023-07-30T13:39:01;4.97;;;0.80;;
19285;SDS011;9776;50.798;6.430;2023-07-30T13:41:28;2.72;;;0.60;;
19285;SDS011;9776;50.798;6.430;2023-07-30T13:43:55;2.85;;;0.65;;
19285;SDS011;9776;50.798;6.430;2023-07-30T13:46:21;2.90;;;0.70;;
19285;SDS011;9776;50.798;6.430;2023-07-30T13:48:48;4.18;;;0.80;;
19285;SDS011;9776;50.798;6.430;2023-07-30T13:51:16;2.17;;;0.63;;
19285;SDS011;9776;50.798;6.430;2023-07-30T13:53:43;2.03;;;0.70;;
19285;SDS011;9776;50.798;6.430;2023-07-30T13:56:09;2.38;;;0.60;;
19285;SDS011;9776;50.798;6.430;2023-07-30T13:58:36;3.83;;;0.80;;
19285;SDS011;9776;50.798;6.430;2023-07-30T14:01:04;2.17;;;0.60;;
19285;SDS011;9776;50.798;6.430;2023-07-30T14:03:34;4.43;;;0.90;;
19285;SDS011;9776;50.798;6.430;2023-07-30T14:06:00;2.25;;;0.77;;
19285;SDS011;9776;50.798;6.430;2023-07-30T14:08:28;2.38;;;0.63;;
19285;SDS011;9776;50.798;6.430;2023-07-30T14:10:55;3.45;;;0.70;;
19285;SDS011;9776;50.798;6.430;2023-07-30T14:13:22;2.92;;;0.73;;
19285;SDS011;9776;50.798;6.430;2023-07-30T14:15:49;2.63;;;0.75;;
19285;SDS011;9776;50.798;6.430;2023-07-30T14:18:16;4.43;;;0.65;;
19285;SDS011;9776;50.798;6.430;2023-07-30T14:20:43;2.63;;;0.50;;
19285;SDS011;9776;50.798;6.430;2023-07-30T14:23:10;3.80;;;0.70;;
19285;SDS011;9776;50.798;6.430;2023-07-30T14:25:39;4.53;;;0.77;;
19285;SDS011;9776;50.798;6.430;2023-07-30T14:28:06;2.50;;;0.80;;
19285;SDS011;9776;50.798;6.430;2023-07-30T14:30:32;3.28;;;0.98;;
19285;SDS011;9776;50.798;6.430;2023-07-30T14:33:00;3.10;;;0.70;;
19285;SDS011;9776;50.798;6.430;2023-07-30T14:35:27;3.50;;;0.77;;
19285;SDS011;9776;50.798;6.430;2023-07-30T14:37:54;3.70;;;1.00;;
19285;SDS011;9776;50.798;6.430;2023-07-30T14:40:21;2.72;;;0.80;;
19285;SDS011;9776;50.798;6.430;2023-07-30T14:42:49;4.28;;;0.85;;
19285;SDS011;9776;50.798;6.430;2023-07-30T14:45:16;3.78;;;1.00;;
19285;SDS011;9776;50.798;6.430;2023-07-30T14:47:43;3.05;;;0.70;;
19285;SDS011;9776;50.798;6.430;2023-07-30T14:50:10;2.42;;;0.85;;
19285;SDS011;9776;50.798;6.430;2023-07-30T14:52:36;6.13;;;0.90;;
19285;SDS011;9776;50.798;6.430;2023-07-30T14:55:04;3.47;;;0.88;;
19285;SDS011;9776;50.798;6.430;2023-07-30T14:57:32;3.47;;;0.82;;
19285;SDS011;9776;50.798;6.430;2023-07-30T15:00:00;3.05;;;0.70;;
19285;SDS011;9776;50.798;6.430;2023-07-30T15:02:27;2.28;;;0.82;;
19285;SDS011;9776;50.798;6.430;2023-07-30T15:04:54;2.53;;;0.70;;